Somerset, KY

9:44 AM EDT on August 29, 2014 (GMT -0400)
London-Corbin / McKee | Change Station
CLOSE
Current Station
Airport
Location: London-Corbin,
Elevation: 1211 ft
Nearby Weather Stations

Elev 1211 ft 37.09 °N, 84.08 °W | Updated 51 minutes ago

Clear
Clear
74 °F
Feels Like 74 °F
N
0
Wind Variable Wind from North

Today
High -- | Low -- °F
--% Chance of Precip.
Yesterday
High -- | Low -- °F
Precip. -- in
7:06 AM 8:11 PM
Waxing Crescent, 14% visible
Pressure 30.07 in
Visibility 9.0 miles
Clouds Clear
Dew Point 68 °F
Humidity 82%
Rainfall 0.00 in
Snow Depth Not available.
UV 2 out of 12
Pollen 10.70 out of 12
Air Quality Not available.
Flu Activity Not available.
METAR KLOZ 291253Z AUTO 00000KT 9SM CLR 23/20 A3011 RMK AO2 SLP182 T02330200

More Conditions Fewer Conditions

Pressure 30.07 in
Visibility 9.0 miles
Clouds Clear
Dew Point 68 °F
Humidity 82%
Rainfall 0.00 in
Snow Depth Not available.
UV 2 out of 12
Pollen 10.70 out of 12
Air Quality Not available.
Flu Activity Not available.
METAR KLOZ 291253Z AUTO 00000KT 9SM CLR 23/20 A3011 RMK AO2 SLP182 T02330200

More Conditions Fewer Conditions

10-Day Weather Forecast

Almanac

Astronomy

Aug. 29, 2014 Rise Set
Actual Time 7:06 AM EDT 8:11 PM EDT
Civil Twilight 6:39 AM EDT 8:37 PM EDT
Nautical Twilight 6:07 AM EDT 9:09 PM EDT
Astronomical Twilight 5:34 AM EDT 9:42 PM EDT
Moon 10:48 AM EDT 10:14 PM EDT
Length of Visible Light 13h 58m
Length of Day
13h 04m
Tomorrow will be 2m 14s shorter.
Waxing Crescent, 14% of the Moon is Illuminated
Today
Waxing Crescent
Sep 2
First Quarter
Sep 8
Full
Sep 15
Last Quarter
Sep 24
New

Today's Extremes

State Highs State Lows

Community

WunderPhotos

Upload Photos

1,748,235 photos uploaded!

Nearby

Snow Depth

Station Depth Elevation
No new snow has been reported.

Earthquake Activity

City Distance Mag. Time & Date
No recent earthquake activity has been reported nearby.
Minimum magnitude displayed is 2.5.

Coastal Water Temperatures

Place Temperature
No Stations Reporting

Nearby Weather Stations